sensor_id;sensor_type;location;lat;lon;timestamp;P1;durP1;ratioP1;P2;durP2;ratioP2
2011;SDS011;1009;51.436;6.972;2022-09-29T00:02:19;13.53;;;12.13;;
2011;SDS011;1009;51.436;6.972;2022-09-29T00:04:46;18.70;;;12.70;;
2011;SDS011;1009;51.436;6.972;2022-09-29T00:07:12;16.57;;;12.80;;
2011;SDS011;1009;51.436;6.972;2022-09-29T00:09:41;16.83;;;13.30;;
2011;SDS011;1009;51.436;6.972;2022-09-29T00:12:07;18.83;;;14.03;;
2011;SDS011;1009;51.436;6.972;2022-09-29T00:14:34;15.27;;;12.23;;
2011;SDS011;1009;51.436;6.972;2022-09-29T00:17:01;16.30;;;12.93;;
2011;SDS011;1009;51.436;6.972;2022-09-29T00:19:28;13.47;;;11.83;;
2011;SDS011;1009;51.436;6.972;2022-09-29T00:21:57;19.80;;;14.50;;
2011;SDS011;1009;51.436;6.972;2022-09-29T00:24:24;17.80;;;12.70;;
2011;SDS011;1009;51.436;6.972;2022-09-29T00:26:52;18.03;;;13.77;;
2011;SDS011;1009;51.436;6.972;2022-09-29T00:29:19;15.17;;;12.67;;
2011;SDS011;1009;51.436;6.972;2022-09-29T00:31:46;15.87;;;12.20;;
2011;SDS011;1009;51.436;6.972;2022-09-29T00:34:12;13.33;;;11.50;;
2011;SDS011;1009;51.436;6.972;2022-09-29T00:36:39;15.30;;;12.83;;
2011;SDS011;1009;51.436;6.972;2022-09-29T00:39:06;16.33;;;12.50;;
2011;SDS011;1009;51.436;6.972;2022-09-29T00:41:34;16.83;;;12.30;;
2011;SDS011;1009;51.436;6.972;2022-09-29T00:44:04;15.23;;;11.73;;
2011;SDS011;1009;51.436;6.972;2022-09-29T00:46:33;15.37;;;12.40;;
2011;SDS011;1009;51.436;6.972;2022-09-29T00:49:06;15.10;;;12.17;;
2011;SDS011;1009;51.436;6.972;2022-09-29T00:51:39;17.67;;;13.30;;
2011;SDS011;1009;51.436;6.972;2022-09-29T00:54:09;18.03;;;14.07;;
2011;SDS011;1009;51.436;6.972;2022-09-29T00:56:37;20.60;;;14.07;;
2011;SDS011;1009;51.436;6.972;2022-09-29T00:59:08;17.70;;;13.03;;
2011;SDS011;1009;51.436;6.972;2022-09-29T01:01:39;15.60;;;12.63;;
2011;SDS011;1009;51.436;6.972;2022-09-29T01:04:06;18.30;;;13.67;;
2011;SDS011;1009;51.436;6.972;2022-09-29T01:06:37;23.07;;;14.83;;
2011;SDS011;1009;51.436;6.972;2022-09-29T01:09:08;19.90;;;13.83;;
2011;SDS011;1009;51.436;6.972;2022-09-29T01:11:38;23.10;;;13.47;;
2011;SDS011;1009;51.436;6.972;2022-09-29T01:14:08;18.90;;;12.97;;
2011;SDS011;1009;51.436;6.972;2022-09-29T01:16:37;16.20;;;13.50;;
2011;SDS011;1009;51.436;6.972;2022-09-29T01:19:06;16.30;;;12.70;;
2011;SDS011;1009;51.436;6.972;2022-09-29T01:21:39;19.00;;;13.40;;
2011;SDS011;1009;51.436;6.972;2022-09-29T01:24:30;20.90;;;13.40;;
2011;SDS011;1009;51.436;6.972;2022-09-29T01:27:37;16.40;;;12.87;;
2011;SDS011;1009;51.436;6.972;2022-09-29T01:30:15;17.80;;;13.03;;
2011;SDS011;1009;51.436;6.972;2022-09-29T01:35:39;13.70;;;11.83;;
2011;SDS011;1009;51.436;6.972;2022-09-29T01:38:17;15.70;;;12.30;;
2011;SDS011;1009;51.436;6.972;2022-09-29T01:40:57;13.57;;;12.17;;
2011;SDS011;1009;51.436;6.972;2022-09-29T01:43:30;21.90;;;13.27;;
2011;SDS011;1009;51.436;6.972;2022-09-29T01:46:02;15.40;;;12.33;;
2011;SDS011;1009;51.436;6.972;2022-09-29T01:48:37;15.37;;;12.60;;
2011;SDS011;1009;51.436;6.972;2022-09-29T01:51:08;15.33;;;12.20;;
2011;SDS011;1009;51.436;6.972;2022-09-29T01:53:39;14.63;;;11.67;;
2011;SDS011;1009;51.436;6.972;2022-09-29T01:56:10;16.70;;;12.00;;
2011;SDS011;1009;51.436;6.972;2022-09-29T01:58:42;15.60;;;12.30;;
2011;SDS011;1009;51.436;6.972;2022-09-29T02:01:16;15.57;;;12.60;;
2011;SDS011;1009;51.436;6.972;2022-09-29T02:03:47;16.13;;;12.03;;
2011;SDS011;1009;51.436;6.972;2022-09-29T02:06:19;14.83;;;12.20;;
2011;SDS011;1009;51.436;6.972;2022-09-29T02:08:48;14.47;;;11.83;;
2011;SDS011;1009;51.436;6.972;2022-09-29T02:11:18;14.80;;;11.70;;
2011;SDS011;1009;51.436;6.972;2022-09-29T02:13:48;20.50;;;12.30;;
2011;SDS011;1009;51.436;6.972;2022-09-29T02:16:18;16.40;;;11.47;;
2011;SDS011;1009;51.436;6.972;2022-09-29T02:18:51;13.53;;;11.00;;
2011;SDS011;1009;51.436;6.972;2022-09-29T02:21:20;18.80;;;13.43;;
2011;SDS011;1009;51.436;6.972;2022-09-29T02:23:48;13.60;;;11.50;;
2011;SDS011;1009;51.436;6.972;2022-09-29T02:26:15;15.40;;;12.13;;
2011;SDS011;1009;51.436;6.972;2022-09-29T02:28:43;14.03;;;12.20;;
2011;SDS011;1009;51.436;6.972;2022-09-29T02:31:10;17.37;;;12.57;;
2011;SDS011;1009;51.436;6.972;2022-09-29T02:33:37;15.17;;;11.30;;
2011;SDS011;1009;51.436;6.972;2022-09-29T02:36:07;18.30;;;12.40;;
2011;SDS011;1009;51.436;6.972;2022-09-29T02:38:44;16.07;;;12.63;;
2011;SDS011;1009;51.436;6.972;2022-09-29T02:41:20;20.30;;;13.10;;
2011;SDS011;1009;51.436;6.972;2022-09-29T02:46:54;17.50;;;13.60;;
2011;SDS011;1009;51.436;6.972;2022-09-29T02:49:41;14.13;;;12.40;;
2011;SDS011;1009;51.436;6.972;2022-09-29T02:52:21;13.20;;;11.60;;
2011;SDS011;1009;51.436;6.972;2022-09-29T02:54:59;16.47;;;12.60;;
2011;SDS011;1009;51.436;6.972;2022-09-29T02:57:34;17.43;;;12.07;;
2011;SDS011;1009;51.436;6.972;2022-09-29T03:00:06;16.20;;;12.00;;
2011;SDS011;1009;51.436;6.972;2022-09-29T03:02:36;15.77;;;12.57;;
2011;SDS011;1009;51.436;6.972;2022-09-29T03:05:04;16.50;;;12.57;;
2011;SDS011;1009;51.436;6.972;2022-09-29T03:07:35;15.83;;;11.87;;
2011;SDS011;1009;51.436;6.972;2022-09-29T03:10:03;20.10;;;12.80;;
2011;SDS011;1009;51.436;6.972;2022-09-29T03:12:31;18.17;;;12.77;;
2011;SDS011;1009;51.436;6.972;2022-09-29T03:14:58;15.70;;;11.97;;
2011;SDS011;1009;51.436;6.972;2022-09-29T03:17:25;18.90;;;12.13;;
2011;SDS011;1009;51.436;6.972;2022-09-29T03:19:52;13.90;;;11.53;;
2011;SDS011;1009;51.436;6.972;2022-09-29T03:22:18;14.70;;;11.93;;
2011;SDS011;1009;51.436;6.972;2022-09-29T03:24:46;13.43;;;10.93;;
2011;SDS011;1009;51.436;6.972;2022-09-29T03:27:13;16.00;;;12.00;;
2011;SDS011;1009;51.436;6.972;2022-09-29T03:29:40;17.03;;;12.93;;
2011;SDS011;1009;51.436;6.972;2022-09-29T03:32:07;16.47;;;12.20;;
2011;SDS011;1009;51.436;6.972;2022-09-29T03:34:34;13.97;;;12.17;;
2011;SDS011;1009;51.436;6.972;2022-09-29T03:37:00;13.50;;;12.10;;
2011;SDS011;1009;51.436;6.972;2022-09-29T03:39:27;14.30;;;11.80;;
2011;SDS011;1009;51.436;6.972;2022-09-29T03:41:56;13.40;;;11.80;;
2011;SDS011;1009;51.436;6.972;2022-09-29T03:44:22;13.90;;;12.40;;
2011;SDS011;1009;51.436;6.972;2022-09-29T03:46:49;19.40;;;13.00;;
2011;SDS011;1009;51.436;6.972;2022-09-29T03:49:16;14.33;;;11.97;;
2011;SDS011;1009;51.436;6.972;2022-09-29T03:51:43;13.90;;;10.93;;
2011;SDS011;1009;51.436;6.972;2022-09-29T03:54:10;13.17;;;10.50;;
2011;SDS011;1009;51.436;6.972;2022-09-29T03:56:37;16.60;;;12.70;;
2011;SDS011;1009;51.436;6.972;2022-09-29T03:59:05;14.37;;;12.20;;
2011;SDS011;1009;51.436;6.972;2022-09-29T04:01:36;16.00;;;14.00;;
2011;SDS011;1009;51.436;6.972;2022-09-29T04:04:03;16.60;;;12.07;;
2011;SDS011;1009;51.436;6.972;2022-09-29T04:06:30;14.70;;;11.67;;
2011;SDS011;1009;51.436;6.972;2022-09-29T04:08:58;15.70;;;13.17;;
2011;SDS011;1009;51.436;6.972;2022-09-29T04:11:24;13.43;;;11.63;;
2011;SDS011;1009;51.436;6.972;2022-09-29T04:13:51;13.97;;;11.87;;
2011;SDS011;1009;51.436;6.972;2022-09-29T04:16:19;15.53;;;12.67;;
2011;SDS011;1009;51.436;6.972;2022-09-29T04:18:46;16.60;;;11.80;;
2011;SDS011;1009;51.436;6.972;2022-09-29T04:21:13;17.47;;;13.40;;
2011;SDS011;1009;51.436;6.972;2022-09-29T04:23:40;15.33;;;12.10;;
2011;SDS011;1009;51.436;6.972;2022-09-29T04:26:07;14.47;;;11.77;;
2011;SDS011;1009;51.436;6.972;2022-09-29T04:28:35;14.73;;;11.53;;
2011;SDS011;1009;51.436;6.972;2022-09-29T04:31:02;16.93;;;12.57;;
2011;SDS011;1009;51.436;6.972;2022-09-29T04:33:30;17.03;;;12.83;;
2011;SDS011;1009;51.436;6.972;2022-09-29T04:35:57;14.03;;;12.00;;
2011;SDS011;1009;51.436;6.972;2022-09-29T04:38:24;16.33;;;13.03;;
2011;SDS011;1009;51.436;6.972;2022-09-29T04:40:51;16.43;;;13.50;;
2011;SDS011;1009;51.436;6.972;2022-09-29T04:43:18;15.97;;;13.73;;
2011;SDS011;1009;51.436;6.972;2022-09-29T04:45:45;16.10;;;13.80;;
2011;SDS011;1009;51.436;6.972;2022-09-29T04:48:12;18.63;;;14.63;;
2011;SDS011;1009;51.436;6.972;2022-09-29T04:50:40;16.70;;;14.40;;
2011;SDS011;1009;51.436;6.972;2022-09-29T04:53:08;17.40;;;14.67;;
2011;SDS011;1009;51.436;6.972;2022-09-29T04:55:36;15.83;;;14.07;;
2011;SDS011;1009;51.436;6.972;2022-09-29T04:58:03;17.30;;;13.80;;
2011;SDS011;1009;51.436;6.972;2022-09-29T05:00:30;18.73;;;14.00;;
2011;SDS011;1009;51.436;6.972;2022-09-29T05:02:57;18.00;;;13.70;;
2011;SDS011;1009;51.436;6.972;2022-09-29T05:05:24;16.77;;;13.80;;
2011;SDS011;1009;51.436;6.972;2022-09-29T05:07:53;16.73;;;14.03;;
2011;SDS011;1009;51.436;6.972;2022-09-29T05:10:19;18.27;;;14.20;;
2011;SDS011;1009;51.436;6.972;2022-09-29T05:12:46;15.60;;;14.00;;
2011;SDS011;1009;51.436;6.972;2022-09-29T05:15:14;16.20;;;13.07;;
2011;SDS011;1009;51.436;6.972;2022-09-29T05:17:41;21.93;;;14.17;;
2011;SDS011;1009;51.436;6.972;2022-09-29T05:20:08;16.07;;;13.80;;
2011;SDS011;1009;51.436;6.972;2022-09-29T05:22:35;15.20;;;13.00;;
2011;SDS011;1009;51.436;6.972;2022-09-29T05:25:04;20.17;;;15.27;;
2011;SDS011;1009;51.436;6.972;2022-09-29T05:27:32;16.07;;;14.07;;
2011;SDS011;1009;51.436;6.972;2022-09-29T05:30:00;16.67;;;13.47;;
2011;SDS011;1009;51.436;6.972;2022-09-29T05:32:27;17.90;;;13.60;;
2011;SDS011;1009;51.436;6.972;2022-09-29T05:34:54;16.87;;;14.70;;
2011;SDS011;1009;51.436;6.972;2022-09-29T05:37:21;18.60;;;14.90;;
2011;SDS011;1009;51.436;6.972;2022-09-29T05:39:48;15.87;;;14.20;;
2011;SDS011;1009;51.436;6.972;2022-09-29T05:42:16;18.20;;;14.30;;
2011;SDS011;1009;51.436;6.972;2022-09-29T05:44:43;17.60;;;14.50;;
2011;SDS011;1009;51.436;6.972;2022-09-29T05:47:10;15.43;;;13.57;;
2011;SDS011;1009;51.436;6.972;2022-09-29T05:49:37;17.87;;;14.90;;
2011;SDS011;1009;51.436;6.972;2022-09-29T05:52:03;18.63;;;14.83;;
2011;SDS011;1009;51.436;6.972;2022-09-29T05:54:30;17.40;;;14.23;;
2011;SDS011;1009;51.436;6.972;2022-09-29T05:56:57;20.00;;;14.97;;
2011;SDS011;1009;51.436;6.972;2022-09-29T05:59:25;17.63;;;14.47;;
2011;SDS011;1009;51.436;6.972;2022-09-29T06:01:52;17.57;;;14.33;;
2011;SDS011;1009;51.436;6.972;2022-09-29T06:04:18;16.77;;;14.50;;
2011;SDS011;1009;51.436;6.972;2022-09-29T06:06:45;17.03;;;15.23;;
2011;SDS011;1009;51.436;6.972;2022-09-29T06:09:12;17.00;;;14.53;;
2011;SDS011;1009;51.436;6.972;2022-09-29T06:11:39;16.40;;;14.70;;
2011;SDS011;1009;51.436;6.972;2022-09-29T06:14:06;19.17;;;14.77;;
2011;SDS011;1009;51.436;6.972;2022-09-29T06:16:34;18.30;;;15.00;;
2011;SDS011;1009;51.436;6.972;2022-09-29T06:19:01;15.70;;;14.00;;
2011;SDS011;1009;51.436;6.972;2022-09-29T06:21:30;25.47;;;15.60;;
2011;SDS011;1009;51.436;6.972;2022-09-29T06:23:59;17.53;;;15.17;;
2011;SDS011;1009;51.436;6.972;2022-09-29T06:26:26;17.77;;;13.97;;
2011;SDS011;1009;51.436;6.972;2022-09-29T06:28:53;21.90;;;15.10;;
2011;SDS011;1009;51.436;6.972;2022-09-29T06:31:22;16.20;;;13.43;;
2011;SDS011;1009;51.436;6.972;2022-09-29T06:33:51;16.13;;;14.43;;
2011;SDS011;1009;51.436;6.972;2022-09-29T06:36:22;17.23;;;12.80;;
2011;SDS011;1009;51.436;6.972;2022-09-29T06:39:11;16.00;;;14.07;;
2011;SDS011;1009;51.436;6.972;2022-09-29T06:41:39;17.93;;;14.33;;
2011;SDS011;1009;51.436;6.972;2022-09-29T06:44:07;15.07;;;13.07;;
2011;SDS011;1009;51.436;6.972;2022-09-29T06:46:34;18.90;;;14.30;;
2011;SDS011;1009;51.436;6.972;2022-09-29T06:49:02;17.60;;;11.87;;
2011;SDS011;1009;51.436;6.972;2022-09-29T06:51:29;14.37;;;12.60;;
2011;SDS011;1009;51.436;6.972;2022-09-29T06:53:56;15.23;;;11.93;;
2011;SDS011;1009;51.436;6.972;2022-09-29T06:56:22;13.33;;;11.93;;
2011;SDS011;1009;51.436;6.972;2022-09-29T06:58:49;17.73;;;11.70;;
2011;SDS011;1009;51.436;6.972;2022-09-29T07:01:16;20.93;;;13.60;;
2011;SDS011;1009;51.436;6.972;2022-09-29T07:03:43;15.83;;;12.00;;
2011;SDS011;1009;51.436;6.972;2022-09-29T07:06:11;16.33;;;12.33;;
2011;SDS011;1009;51.436;6.972;2022-09-29T07:08:37;16.97;;;11.50;;
2011;SDS011;1009;51.436;6.972;2022-09-29T07:11:04;15.03;;;11.10;;
2011;SDS011;1009;51.436;6.972;2022-09-29T07:13:32;16.97;;;11.40;;
2011;SDS011;1009;51.436;6.972;2022-09-29T07:16:02;15.43;;;10.03;;
2011;SDS011;1009;51.436;6.972;2022-09-29T07:18:31;13.13;;;10.20;;
2011;SDS011;1009;51.436;6.972;2022-09-29T07:20:59;15.07;;;9.40;;
2011;SDS011;1009;51.436;6.972;2022-09-29T07:23:27;14.70;;;9.60;;
2011;SDS011;1009;51.436;6.972;2022-09-29T07:25:54;14.33;;;9.57;;
2011;SDS011;1009;51.436;6.972;2022-09-29T07:28:21;15.30;;;10.63;;
2011;SDS011;1009;51.436;6.972;2022-09-29T07:30:56;10.77;;;8.30;;
2011;SDS011;1009;51.436;6.972;2022-09-29T07:33:24;12.53;;;8.90;;
2011;SDS011;1009;51.436;6.972;2022-09-29T07:35:51;11.30;;;9.20;;
2011;SDS011;1009;51.436;6.972;2022-09-29T07:38:18;12.60;;;9.40;;
2011;SDS011;1009;51.436;6.972;2022-09-29T07:40:46;13.90;;;9.30;;
2011;SDS011;1009;51.436;6.972;2022-09-29T07:43:13;12.30;;;8.90;;
2011;SDS011;1009;51.436;6.972;2022-09-29T07:45:44;9.60;;;7.80;;
2011;SDS011;1009;51.436;6.972;2022-09-29T07:48:12;12.67;;;8.40;;
2011;SDS011;1009;51.436;6.972;2022-09-29T07:50:40;12.30;;;7.13;;
2011;SDS011;1009;51.436;6.972;2022-09-29T07:53:07;10.07;;;8.57;;
2011;SDS011;1009;51.436;6.972;2022-09-29T07:55:34;9.50;;;7.20;;
2011;SDS011;1009;51.436;6.972;2022-09-29T07:58:02;9.97;;;7.60;;
2011;SDS011;1009;51.436;6.972;2022-09-29T08:00:29;13.40;;;7.63;;
2011;SDS011;1009;51.436;6.972;2022-09-29T08:02:58;13.33;;;7.90;;
2011;SDS011;1009;51.436;6.972;2022-09-29T08:05:26;8.43;;;7.00;;
2011;SDS011;1009;51.436;6.972;2022-09-29T08:07:53;10.63;;;7.27;;
2011;SDS011;1009;51.436;6.972;2022-09-29T08:10:22;9.93;;;8.10;;
2011;SDS011;1009;51.436;6.972;2022-09-29T08:12:48;12.17;;;7.03;;
2011;SDS011;1009;51.436;6.972;2022-09-29T08:15:16;10.67;;;6.77;;
2011;SDS011;1009;51.436;6.972;2022-09-29T08:17:43;10.83;;;7.93;;
2011;SDS011;1009;51.436;6.972;2022-09-29T08:20:10;10.50;;;7.20;;
2011;SDS011;1009;51.436;6.972;2022-09-29T08:22:37;10.50;;;7.47;;
2011;SDS011;1009;51.436;6.972;2022-09-29T08:25:04;10.33;;;7.63;;
2011;SDS011;1009;51.436;6.972;2022-09-29T08:27:31;10.40;;;7.23;;
2011;SDS011;1009;51.436;6.972;2022-09-29T08:29:58;9.87;;;6.63;;
2011;SDS011;1009;51.436;6.972;2022-09-29T08:32:26;8.93;;;7.00;;
2011;SDS011;1009;51.436;6.972;2022-09-29T08:34:53;10.87;;;7.30;;
2011;SDS011;1009;51.436;6.972;2022-09-29T08:37:20;7.83;;;6.27;;
2011;SDS011;1009;51.436;6.972;2022-09-29T08:39:47;8.30;;;6.40;;
2011;SDS011;1009;51.436;6.972;2022-09-29T08:42:14;11.60;;;7.33;;
2011;SDS011;1009;51.436;6.972;2022-09-29T08:44:49;9.30;;;6.70;;
2011;SDS011;1009;51.436;6.972;2022-09-29T08:47:24;9.90;;;6.60;;
2011;SDS011;1009;51.436;6.972;2022-09-29T08:49:56;9.90;;;7.03;;
2011;SDS011;1009;51.436;6.972;2022-09-29T08:52:25;6.90;;;5.40;;
2011;SDS011;1009;51.436;6.972;2022-09-29T08:54:57;8.63;;;5.70;;
2011;SDS011;1009;51.436;6.972;2022-09-29T08:57:30;8.20;;;6.67;;
2011;SDS011;1009;51.436;6.972;2022-09-29T08:59:58;7.83;;;6.00;;
2011;SDS011;1009;51.436;6.972;2022-09-29T09:02:39;8.20;;;6.53;;
2011;SDS011;1009;51.436;6.972;2022-09-29T09:05:41;7.60;;;5.80;;
2011;SDS011;1009;51.436;6.972;2022-09-29T09:08:24;11.00;;;5.97;;
2011;SDS011;1009;51.436;6.972;2022-09-29T09:11:03;7.30;;;6.07;;
2011;SDS011;1009;51.436;6.972;2022-09-29T09:13:43;8.40;;;6.17;;
2011;SDS011;1009;51.436;6.972;2022-09-29T09:16:24;8.47;;;5.20;;
2011;SDS011;1009;51.436;6.972;2022-09-29T09:19:11;6.33;;;5.20;;
2011;SDS011;1009;51.436;6.972;2022-09-29T09:22:04;7.10;;;5.37;;
2011;SDS011;1009;51.436;6.972;2022-09-29T09:24:40;8.10;;;4.17;;
2011;SDS011;1009;51.436;6.972;2022-09-29T09:27:13;6.17;;;4.40;;
2011;SDS011;1009;51.436;6.972;2022-09-29T09:29:46;5.90;;;4.60;;
2011;SDS011;1009;51.436;6.972;2022-09-29T09:32:16;7.13;;;4.00;;
2011;SDS011;1009;51.436;6.972;2022-09-29T09:34:50;6.10;;;3.73;;
2011;SDS011;1009;51.436;6.972;2022-09-29T09:37:21;5.40;;;3.43;;
2011;SDS011;1009;51.436;6.972;2022-09-29T09:39:53;4.60;;;3.43;;
2011;SDS011;1009;51.436;6.972;2022-09-29T09:42:24;6.10;;;4.53;;
2011;SDS011;1009;51.436;6.972;2022-09-29T09:44:56;4.70;;;4.30;;
2011;SDS011;1009;51.436;6.972;2022-09-29T09:47:28;5.80;;;3.20;;
2011;SDS011;1009;51.436;6.972;2022-09-29T09:50:00;4.27;;;3.23;;
2011;SDS011;1009;51.436;6.972;2022-09-29T09:52:30;6.37;;;4.03;;
2011;SDS011;1009;51.436;6.972;2022-09-29T09:55:04;5.80;;;3.83;;
2011;SDS011;1009;51.436;6.972;2022-09-29T09:57:42;5.37;;;4.03;;
2011;SDS011;1009;51.436;6.972;2022-09-29T10:00:21;6.77;;;4.07;;
2011;SDS011;1009;51.436;6.972;2022-09-29T10:02:51;7.73;;;5.03;;
2011;SDS011;1009;51.436;6.972;2022-09-29T10:05:21;6.10;;;5.00;;
2011;SDS011;1009;51.436;6.972;2022-09-29T10:07:51;7.17;;;5.30;;
2011;SDS011;1009;51.436;6.972;2022-09-29T10:10:19;7.00;;;4.77;;
2011;SDS011;1009;51.436;6.972;2022-09-29T10:12:48;5.47;;;3.97;;
2011;SDS011;1009;51.436;6.972;2022-09-29T10:15:21;5.47;;;3.80;;
2011;SDS011;1009;51.436;6.972;2022-09-29T10:17:55;4.50;;;4.07;;
2011;SDS011;1009;51.436;6.972;2022-09-29T10:20:30;7.57;;;4.37;;
2011;SDS011;1009;51.436;6.972;2022-09-29T10:25:49;5.57;;;3.10;;
2011;SDS011;1009;51.436;6.972;2022-09-29T10:28:22;9.50;;;3.37;;
2011;SDS011;1009;51.436;6.972;2022-09-29T10:30:50;5.50;;;2.77;;
2011;SDS011;1009;51.436;6.972;2022-09-29T10:33:19;3.97;;;2.63;;
2011;SDS011;1009;51.436;6.972;2022-09-29T10:35:50;4.80;;;3.10;;
2011;SDS011;1009;51.436;6.972;2022-09-29T10:38:31;5.97;;;3.50;;
2011;SDS011;1009;51.436;6.972;2022-09-29T10:40:58;3.60;;;3.10;;
2011;SDS011;1009;51.436;6.972;2022-09-29T10:43:31;8.07;;;4.53;;
2011;SDS011;1009;51.436;6.972;2022-09-29T10:46:01;6.13;;;3.80;;
2011;SDS011;1009;51.436;6.972;2022-09-29T10:48:28;5.43;;;3.17;;
2011;SDS011;1009;51.436;6.972;2022-09-29T10:50:57;5.33;;;2.93;;
2011;SDS011;1009;51.436;6.972;2022-09-29T10:53:27;3.07;;;2.27;;
2011;SDS011;1009;51.436;6.972;2022-09-29T10:56:00;3.93;;;3.17;;
2011;SDS011;1009;51.436;6.972;2022-09-29T10:58:36;5.83;;;2.73;;
2011;SDS011;1009;51.436;6.972;2022-09-29T11:01:07;3.37;;;2.67;;
2011;SDS011;1009;51.436;6.972;2022-09-29T11:03:36;3.43;;;2.10;;
2011;SDS011;1009;51.436;6.972;2022-09-29T11:06:07;4.33;;;2.80;;
2011;SDS011;1009;51.436;6.972;2022-09-29T11:11:24;5.60;;;2.30;;
2011;SDS011;1009;51.436;6.972;2022-09-29T11:13:52;4.93;;;2.70;;
2011;SDS011;1009;51.436;6.972;2022-09-29T11:16:24;4.17;;;3.77;;
2011;SDS011;1009;51.436;6.972;2022-09-29T11:18:54;7.40;;;3.30;;
2011;SDS011;1009;51.436;6.972;2022-09-29T11:21:30;6.27;;;2.60;;
2011;SDS011;1009;51.436;6.972;2022-09-29T11:24:24;4.43;;;2.20;;
2011;SDS011;1009;51.436;6.972;2022-09-29T11:27:14;4.47;;;2.40;;
2011;SDS011;1009;51.436;6.972;2022-09-29T11:29:54;4.00;;;1.83;;
2011;SDS011;1009;51.436;6.972;2022-09-29T11:32:29;3.50;;;1.87;;
2011;SDS011;1009;51.436;6.972;2022-09-29T11:35:12;4.33;;;2.00;;
2011;SDS011;1009;51.436;6.972;2022-09-29T11:38:03;3.67;;;2.63;;
2011;SDS011;1009;51.436;6.972;2022-09-29T11:40:46;3.70;;;2.10;;
2011;SDS011;1009;51.436;6.972;2022-09-29T11:43:25;3.70;;;2.13;;
2011;SDS011;1009;51.436;6.972;2022-09-29T11:46:02;3.57;;;1.90;;
2011;SDS011;1009;51.436;6.972;2022-09-29T11:48:42;3.53;;;1.93;;
2011;SDS011;1009;51.436;6.972;2022-09-29T11:51:23;5.40;;;1.93;;
2011;SDS011;1009;51.436;6.972;2022-09-29T11:54:15;2.83;;;1.47;;
2011;SDS011;1009;51.436;6.972;2022-09-29T11:56:56;4.27;;;1.90;;
2011;SDS011;1009;51.436;6.972;2022-09-29T11:59:34;3.47;;;1.57;;
2011;SDS011;1009;51.436;6.972;2022-09-29T12:02:21;5.07;;;1.60;;
2011;SDS011;1009;51.436;6.972;2022-09-29T12:05:07;3.20;;;2.10;;
2011;SDS011;1009;51.436;6.972;2022-09-29T12:07:45;2.40;;;1.67;;
2011;SDS011;1009;51.436;6.972;2022-09-29T12:10:28;4.23;;;1.93;;
2011;SDS011;1009;51.436;6.972;2022-09-29T12:13:04;2.40;;;1.83;;
2011;SDS011;1009;51.436;6.972;2022-09-29T12:15:43;3.63;;;1.80;;
2011;SDS011;1009;51.436;6.972;2022-09-29T12:18:17;3.67;;;1.70;;
2011;SDS011;1009;51.436;6.972;2022-09-29T12:20:49;3.30;;;1.30;;
2011;SDS011;1009;51.436;6.972;2022-09-29T12:23:19;4.10;;;2.13;;
2011;SDS011;1009;51.436;6.972;2022-09-29T12:25:52;3.93;;;1.50;;
2011;SDS011;1009;51.436;6.972;2022-09-29T12:28:26;2.30;;;1.60;;
2011;SDS011;1009;51.436;6.972;2022-09-29T12:30:58;3.20;;;1.70;;
2011;SDS011;1009;51.436;6.972;2022-09-29T12:33:28;1.80;;;1.20;;
2011;SDS011;1009;51.436;6.972;2022-09-29T12:36:03;2.73;;;1.60;;
2011;SDS011;1009;51.436;6.972;2022-09-29T12:39:02;2.30;;;1.57;;
2011;SDS011;1009;51.436;6.972;2022-09-29T12:41:37;2.20;;;1.50;;
2011;SDS011;1009;51.436;6.972;2022-09-29T12:44:11;5.27;;;2.00;;
2011;SDS011;1009;51.436;6.972;2022-09-29T12:46:43;5.23;;;1.87;;
2011;SDS011;1009;51.436;6.972;2022-09-29T12:49:17;4.40;;;1.73;;
2011;SDS011;1009;51.436;6.972;2022-09-29T12:51:48;2.93;;;1.63;;
2011;SDS011;1009;51.436;6.972;2022-09-29T12:54:17;4.50;;;2.10;;
2011;SDS011;1009;51.436;6.972;2022-09-29T12:56:55;2.73;;;1.60;;
2011;SDS011;1009;51.436;6.972;2022-09-29T12:59:31;3.57;;;1.20;;
2011;SDS011;1009;51.436;6.972;2022-09-29T13:02:03;7.33;;;3.77;;
2011;SDS011;1009;51.436;6.972;2022-09-29T13:04:51;8.60;;;3.73;;
2011;SDS011;1009;51.436;6.972;2022-09-29T13:07:38;6.23;;;4.00;;
2011;SDS011;1009;51.436;6.972;2022-09-29T13:13:25;6.87;;;3.30;;
2011;SDS011;1009;51.436;6.972;2022-09-29T13:16:12;5.50;;;3.23;;
2011;SDS011;1009;51.436;6.972;2022-09-29T13:19:04;4.50;;;3.00;;
2011;SDS011;1009;51.436;6.972;2022-09-29T13:21:45;5.07;;;2.73;;
2011;SDS011;1009;51.436;6.972;2022-09-29T13:24:31;5.77;;;3.17;;
2011;SDS011;1009;51.436;6.972;2022-09-29T13:27:09;5.40;;;3.00;;
2011;SDS011;1009;51.436;6.972;2022-09-29T13:30:02;8.60;;;3.07;;
2011;SDS011;1009;51.436;6.972;2022-09-29T13:32:31;9.97;;;2.80;;
2011;SDS011;1009;51.436;6.972;2022-09-29T13:35:09;6.00;;;3.27;;
2011;SDS011;1009;51.436;6.972;2022-09-29T13:37:42;5.80;;;3.07;;
2011;SDS011;1009;51.436;6.972;2022-09-29T13:40:15;4.43;;;2.00;;
2011;SDS011;1009;51.436;6.972;2022-09-29T13:42:46;2.77;;;1.90;;
2011;SDS011;1009;51.436;6.972;2022-09-29T13:51:25;4.13;;;2.30;;
2011;SDS011;1009;51.436;6.972;2022-09-29T13:54:27;3.83;;;2.00;;
2011;SDS011;1009;51.436;6.972;2022-09-29T14:00:03;2.87;;;1.40;;
2011;SDS011;1009;51.436;6.972;2022-09-29T14:06:11;3.90;;;1.83;;
2011;SDS011;1009;51.436;6.972;2022-09-29T14:08:40;5.30;;;2.10;;
2011;SDS011;1009;51.436;6.972;2022-09-29T14:11:12;3.83;;;1.90;;
2011;SDS011;1009;51.436;6.972;2022-09-29T14:13:48;4.60;;;2.50;;
2011;SDS011;1009;51.436;6.972;2022-09-29T14:19:32;2.80;;;1.93;;
2011;SDS011;1009;51.436;6.972;2022-09-29T14:28:33;4.73;;;2.47;;
2011;SDS011;1009;51.436;6.972;2022-09-29T14:31:15;2.63;;;2.03;;
2011;SDS011;1009;51.436;6.972;2022-09-29T14:33:46;4.77;;;2.23;;
2011;SDS011;1009;51.436;6.972;2022-09-29T14:36:18;4.97;;;2.57;;
2011;SDS011;1009;51.436;6.972;2022-09-29T14:38:49;3.93;;;1.97;;
2011;SDS011;1009;51.436;6.972;2022-09-29T14:41:24;3.97;;;2.33;;
2011;SDS011;1009;51.436;6.972;2022-09-29T14:43:56;6.10;;;2.10;;
2011;SDS011;1009;51.436;6.972;2022-09-29T14:46:37;4.93;;;2.80;;
2011;SDS011;1009;51.436;6.972;2022-09-29T14:49:46;3.20;;;2.30;;
2011;SDS011;1009;51.436;6.972;2022-09-29T14:53:01;7.20;;;2.77;;
2011;SDS011;1009;51.436;6.972;2022-09-29T14:55:41;2.63;;;2.10;;
2011;SDS011;1009;51.436;6.972;2022-09-29T14:58:25;3.10;;;1.97;;
2011;SDS011;1009;51.436;6.972;2022-09-29T15:01:05;4.17;;;1.80;;
2011;SDS011;1009;51.436;6.972;2022-09-29T15:03:38;2.40;;;1.60;;
2011;SDS011;1009;51.436;6.972;2022-09-29T15:06:11;3.60;;;1.63;;
2011;SDS011;1009;51.436;6.972;2022-09-29T15:08:41;2.80;;;1.47;;
2011;SDS011;1009;51.436;6.972;2022-09-29T15:11:24;3.03;;;1.43;;
2011;SDS011;1009;51.436;6.972;2022-09-29T15:13:53;2.77;;;1.50;;
2011;SDS011;1009;51.436;6.972;2022-09-29T15:16:21;3.10;;;1.50;;
2011;SDS011;1009;51.436;6.972;2022-09-29T15:21:48;2.80;;;1.70;;
2011;SDS011;1009;51.436;6.972;2022-09-29T15:24:29;3.60;;;1.60;;
2011;SDS011;1009;51.436;6.972;2022-09-29T15:27:08;3.43;;;1.50;;
2011;SDS011;1009;51.436;6.972;2022-09-29T15:29:38;4.70;;;1.97;;
2011;SDS011;1009;51.436;6.972;2022-09-29T15:32:11;4.33;;;2.03;;
2011;SDS011;1009;51.436;6.972;2022-09-29T15:34:46;4.30;;;2.30;;
2011;SDS011;1009;51.436;6.972;2022-09-29T15:37:14;2.50;;;1.50;;
2011;SDS011;1009;51.436;6.972;2022-09-29T15:39:44;3.13;;;1.70;;
2011;SDS011;1009;51.436;6.972;2022-09-29T15:42:16;2.83;;;1.33;;
2011;SDS011;1009;51.436;6.972;2022-09-29T15:44:49;7.47;;;1.67;;
2011;SDS011;1009;51.436;6.972;2022-09-29T15:47:21;3.20;;;1.70;;
2011;SDS011;1009;51.436;6.972;2022-09-29T15:49:53;3.73;;;1.53;;
2011;SDS011;1009;51.436;6.972;2022-09-29T15:52:20;4.83;;;2.60;;
2011;SDS011;1009;51.436;6.972;2022-09-29T15:54:54;2.83;;;1.70;;
2011;SDS011;1009;51.436;6.972;2022-09-29T15:57:29;3.07;;;1.70;;
2011;SDS011;1009;51.436;6.972;2022-09-29T16:03:20;2.40;;;1.50;;
2011;SDS011;1009;51.436;6.972;2022-09-29T16:06:04;3.80;;;1.90;;
2011;SDS011;1009;51.436;6.972;2022-09-29T16:08:42;4.50;;;1.80;;
2011;SDS011;1009;51.436;6.972;2022-09-29T16:11:17;3.60;;;1.73;;
2011;SDS011;1009;51.436;6.972;2022-09-29T16:13:47;4.53;;;2.03;;